Time;durP1;ratioP1;P1;durP2;ratioP2;P2;SDS_P1;SDS_P2;PMS_P1;PMS_P2;Temp;Humidity;BMP_temperature;BMP_pressure;BME280_temperature;BME280_humidity;BME280_pressure;Samples;Min_cycle;Max_cycle;Signal;HPM_P1;HPM_P2
2021/04/04 00:01:13;;;;;;;;;;;6.90;77.30;;;;;;5056966;28;19904;-86
2021/04/04 00:03:39;;;;;;;;;;;6.90;77.30;;;;;;5057491;28;20254;-86
2021/04/04 00:06:04;;;;;;;;;;;6.80;77.50;;;;;;5075202;28;19905;-85
2021/04/04 00:08:30;;;;;;;;;;;6.70;77.90;;;;;;5057511;28;19904;-86
2021/04/04 00:10:55;;;;;;;;;;;6.70;78.00;;;;;;5056614;28;19923;-85
2021/04/04 00:13:21;;;;;;;;;;;6.70;77.80;;;;;;5057158;28;20315;-86
2021/04/04 00:15:47;;;;;;;;;;;6.70;77.50;;;;;;5075161;28;19912;-86
2021/04/04 00:18:12;;;;;;;;;;;6.70;77.30;;;;;;5075241;28;19948;-87
2021/04/04 00:20:38;;;;;;;;;;;6.70;77.20;;;;;;5074411;28;19911;-85
2021/04/04 00:23:03;;;;;;;;;;;6.70;77.10;;;;;;5074847;28;19908;-86
2021/04/04 00:25:29;;;;;;;;;;;6.50;77.70;;;;;;5073544;28;20269;-86
2021/04/04 00:27:55;;;;;;;;;;;6.70;77.60;;;;;;5074912;28;19904;-86
2021/04/04 00:30:21;;;;;;;;;;;6.70;77.40;;;;;;5056788;28;19915;-86
2021/04/04 00:32:47;;;;;;;;;;;6.70;77.00;;;;;;5056783;28;19908;-85
2021/04/04 00:35:15;;;;;;;;;;;6.60;77.20;;;;;;5074748;28;19910;-86
2021/04/04 00:37:41;;;;;;;;;;;6.70;77.20;;;;;;5057007;28;19905;-85
2021/04/04 00:40:11;;;;;;;;;;;6.70;77.00;;;;;;5056563;28;19927;-86
2021/04/04 00:42:37;;;;;;;;;;;6.60;77.60;;;;;;5074532;28;19904;-86
2021/04/04 00:45:05;;;;;;;;;;;6.60;76.80;;;;;;5056674;28;19904;-84
2021/04/04 00:47:31;;;;;;;;;;;6.70;76.90;;;;;;5056566;28;19915;-86
2021/04/04 00:49:56;;;;;;;;;;;6.70;76.50;;;;;;5073817;28;19904;-85
2021/04/04 00:52:22;;;;;;;;;;;6.80;76.50;;;;;;5056459;28;19954;-86
2021/04/04 00:54:47;;;;;;;;;;;6.80;76.30;;;;;;5056651;28;20254;-87
2021/04/04 00:57:14;;;;;;;;;;;6.80;75.90;;;;;;5074329;28;19920;-86
2021/04/04 00:59:39;;;;;;;;;;;6.70;76.10;;;;;;5073744;28;19904;-86
2021/04/04 01:02:05;;;;;;;;;;;6.80;76.20;;;;;;5074188;28;20027;-85
2021/04/04 01:04:31;;;;;;;;;;;6.80;76.00;;;;;;5056535;28;19909;-86
2021/04/04 01:06:56;;;;;;;;;;;6.80;75.80;;;;;;5074113;28;19908;-86
2021/04/04 01:09:21;;;;;;;;;;;6.70;76.10;;;;;;5074105;28;19909;-86
2021/04/04 01:11:59;;;;;;;;;;;6.60;75.90;;;;;;5060278;28;19919;-86
2021/04/04 01:14:33;;;;;;;;;;;6.70;75.80;;;;;;5060424;28;19908;-85
2021/04/04 01:17:01;;;;;;;;;;;6.50;76.30;;;;;;5058778;28;19926;-86
2021/04/04 01:19:42;;;;;;;;;;;6.60;76.10;;;;;;5059002;28;19999;-86
2021/04/04 01:22:21;;;;;;;;;;;6.60;75.60;;;;;;5073727;28;19905;-86
2021/04/04 01:24:47;;;;;;;;;;;6.70;75.80;;;;;;5056247;28;20379;-86
2021/04/04 01:27:45;;;;;;;;;;;6.60;75.80;;;;;;5055606;28;19904;-86
2021/04/04 01:30:15;;;;;;;;;;;6.60;75.60;;;;;;5028532;28;19908;-86
2021/04/04 01:32:41;;;;;;;;;;;6.70;75.40;;;;;;5073454;28;19904;-86
2021/04/04 01:35:08;;;;;;;;;;;6.70;75.10;;;;;;5055883;28;20372;-86
2021/04/04 01:37:34;;;;;;;;;;;6.80;75.00;;;;;;5055157;28;19911;-86
2021/04/04 01:40:00;;;;;;;;;;;6.80;74.70;;;;;;5072781;28;20002;-85
2021/04/04 01:42:28;;;;;;;;;;;6.80;74.50;;;;;;5055236;28;20008;-86
2021/04/04 01:44:54;;;;;;;;;;;6.60;75.10;;;;;;5073148;28;19913;-86
2021/04/04 01:47:20;;;;;;;;;;;6.80;74.90;;;;;;5056862;28;20315;-86
2021/04/04 01:49:47;;;;;;;;;;;6.70;74.80;;;;;;5064072;28;19904;-86
2021/04/04 01:52:13;;;;;;;;;;;6.70;74.70;;;;;;5064504;28;20349;-86
2021/04/04 01:54:38;;;;;;;;;;;6.60;75.00;;;;;;5081857;28;19984;-86
2021/04/04 01:57:04;;;;;;;;;;;6.70;74.80;;;;;;5061122;28;19951;-85
2021/04/04 01:59:31;;;;;;;;;;;6.80;74.80;;;;;;5063542;28;19904;-86
2021/04/04 02:01:58;;;;;;;;;;;6.70;74.50;;;;;;5082419;28;19905;-86
2021/04/04 02:04:24;;;;;;;;;;;6.80;74.60;;;;;;5080556;28;19954;-87
2021/04/04 02:06:50;;;;;;;;;;;6.70;74.20;;;;;;5062990;28;19927;-85
2021/04/04 02:09:16;;;;;;;;;;;6.80;74.80;;;;;;5065323;28;20195;-86
2021/04/04 02:11:43;;;;;;;;;;;6.80;74.50;;;;;;5055435;28;19915;-86
2021/04/04 02:14:10;;;;;;;;;;;6.80;74.40;;;;;;5072945;28;19908;-85
2021/04/04 02:16:37;;;;;;;;;;;6.70;74.10;;;;;;5054851;28;20316;-85
2021/04/04 02:19:04;;;;;;;;;;;6.80;74.50;;;;;;5054244;28;19926;-85
2021/04/04 02:21:29;;;;;;;;;;;6.80;74.50;;;;;;5054810;28;20365;-85
2021/04/04 02:23:55;;;;;;;;;;;6.80;74.50;;;;;;5054800;28;19905;-86
2021/04/04 02:26:21;;;;;;;;;;;6.80;74.80;;;;;;5054638;28;19908;-85
2021/04/04 02:28:49;;;;;;;;;;;6.80;74.80;;;;;;5054455;28;19940;-85
2021/04/04 02:31:16;;;;;;;;;;;6.70;75.00;;;;;;5054188;28;19904;-86
2021/04/04 02:33:46;;;;;;;;;;;6.80;74.90;;;;;;5054399;28;20412;-86
2021/04/04 02:36:12;;;;;;;;;;;6.80;75.10;;;;;;5054369;28;19969;-85
2021/04/04 02:38:40;;;;;;;;;;;6.90;75.00;;;;;;5072590;28;19911;-85
2021/04/04 02:41:07;;;;;;;;;;;6.80;75.20;;;;;;5053945;28;19958;-86
2021/04/04 02:43:35;;;;;;;;;;;6.80;75.00;;;;;;5072377;28;19904;-86
2021/04/04 02:46:02;;;;;;;;;;;6.90;75.40;;;;;;5054319;28;19949;-85
2021/04/04 02:48:33;;;;;;;;;;;6.90;75.10;;;;;;5056255;28;19949;-86
2021/04/04 02:51:01;;;;;;;;;;;6.90;75.00;;;;;;5076039;28;19904;-86
2021/04/04 02:53:28;;;;;;;;;;;6.90;75.20;;;;;;5058325;28;19908;-86
2021/04/04 02:55:55;;;;;;;;;;;6.90;75.00;;;;;;5076277;28;19920;-85
2021/04/04 02:58:22;;;;;;;;;;;6.90;75.10;;;;;;5075567;28;19908;-85
2021/04/04 03:00:49;;;;;;;;;;;6.90;74.90;;;;;;5075142;28;19904;-86
2021/04/04 03:03:17;;;;;;;;;;;6.90;75.10;;;;;;5058368;28;19950;-85
2021/04/04 03:05:44;;;;;;;;;;;6.90;75.10;;;;;;5058268;28;19915;-86
2021/04/04 03:08:10;;;;;;;;;;;6.90;75.10;;;;;;5058178;28;19914;-86
2021/04/04 03:10:36;;;;;;;;;;;6.90;75.10;;;;;;5057802;28;19904;-86
2021/04/04 03:13:02;;;;;;;;;;;6.80;75.40;;;;;;5076046;28;19912;-85
2021/04/04 03:15:28;;;;;;;;;;;6.80;75.50;;;;;;5057969;28;20502;-86
2021/04/04 03:17:55;;;;;;;;;;;7.00;75.30;;;;;;5076072;28;20280;-86
2021/04/04 03:20:21;;;;;;;;;;;6.90;75.40;;;;;;5057446;28;19908;-86
2021/04/04 03:22:48;;;;;;;;;;;7.00;75.40;;;;;;5058021;28;19912;-86
2021/04/04 03:25:14;;;;;;;;;;;7.00;75.40;;;;;;5057822;28;19904;-86
2021/04/04 03:27:44;;;;;;;;;;;6.90;77.10;;;;;;5057925;28;19904;-85
2021/04/04 03:30:34;;;;;;;;;;;6.90;77.70;;;;;;5075395;28;19912;-86
2021/04/04 03:32:57;;;;;;;;;;;6.90;78.50;;;;;;5075616;28;19908;-86
2021/04/04 03:35:23;;;;;;;;;;;6.90;79.00;;;;;;5057608;28;19991;-86
2021/04/04 03:37:50;;;;;;;;;;;6.80;79.30;;;;;;5057740;28;19905;-86
2021/04/04 03:40:15;;;;;;;;;;;6.90;79.40;;;;;;5057166;28;19904;-85
2021/04/04 03:42:41;;;;;;;;;;;6.90;79.60;;;;;;5057582;28;19908;-85
2021/04/04 03:45:07;;;;;;;;;;;6.90;80.20;;;;;;5057540;28;19950;-86
2021/04/04 03:47:33;;;;;;;;;;;6.90;80.30;;;;;;5075430;28;19958;-85
2021/04/04 03:49:59;;;;;;;;;;;6.90;80.20;;;;;;5056924;28;19940;-85
2021/04/04 03:52:24;;;;;;;;;;;6.80;80.10;;;;;;5057383;28;19911;-86
2021/04/04 03:54:50;;;;;;;;;;;6.90;80.40;;;;;;5057379;28;20277;-85
2021/04/04 03:57:17;;;;;;;;;;;6.80;80.20;;;;;;5056186;28;19920;-86
2021/04/04 03:59:43;;;;;;;;;;;6.80;80.30;;;;;;5073282;28;19990;-86
2021/04/04 04:02:09;;;;;;;;;;;7.00;80.10;;;;;;5056063;28;19952;-86
2021/04/04 04:04:36;;;;;;;;;;;6.90;80.10;;;;;;5056026;28;19911;-85
2021/04/04 04:07:02;;;;;;;;;;;6.90;79.70;;;;;;5055899;28;19908;-86
2021/04/04 04:09:28;;;;;;;;;;;6.90;80.00;;;;;;5055308;28;19905;-85
2021/04/04 04:11:54;;;;;;;;;;;6.90;80.00;;;;;;5055713;28;19930;-85
2021/04/04 04:14:21;;;;;;;;;;;6.90;80.00;;;;;;5055693;28;19974;-86
2021/04/04 04:16:47;;;;;;;;;;;6.90;80.20;;;;;;5055772;28;19908;-86
2021/04/04 04:19:13;;;;;;;;;;;6.90;80.50;;;;;;5055169;28;19916;-86
2021/04/04 04:21:40;;;;;;;;;;;6.90;80.10;;;;;;5073636;28;19904;-86
2021/04/04 04:24:09;;;;;;;;;;;6.90;76.50;;;;;;5055680;28;19905;-86
2021/04/04 04:26:35;;;;;;;;;;;6.90;75.50;;;;;;5073584;28;19904;-86
2021/04/04 04:29:01;;;;;;;;;;;7.00;75.50;;;;;;5073034;28;20368;-86
2021/04/04 04:31:30;;;;;;;;;;;6.90;75.40;;;;;;5055153;28;19915;-85
2021/04/04 04:33:56;;;;;;;;;;;6.90;74.70;;;;;;5073416;28;19931;-86
2021/04/04 04:36:22;;;;;;;;;;;7.00;73.70;;;;;;5055429;28;19904;-85
2021/04/04 04:38:49;;;;;;;;;;;6.90;73.80;;;;;;5073177;28;19938;-85
2021/04/04 04:41:15;;;;;;;;;;;7.00;74.10;;;;;;5055101;28;19911;-85
2021/04/04 04:43:43;;;;;;;;;;;6.90;73.80;;;;;;5073358;28;19908;-86
2021/04/04 04:46:09;;;;;;;;;;;6.90;74.00;;;;;;5055272;28;19904;-85
2021/04/04 04:48:35;;;;;;;;;;;7.00;74.00;;;;;;5055325;28;19904;-86
2021/04/04 04:51:00;;;;;;;;;;;6.90;73.90;;;;;;5054732;28;19911;-86
2021/04/04 04:53:26;;;;;;;;;;;6.80;74.10;;;;;;5055121;28;19908;-85
2021/04/04 04:55:54;;;;;;;;;;;6.80;74.30;;;;;;5033815;28;620798;-86
2021/04/04 04:58:19;;;;;;;;;;;6.80;74.10;;;;;;5074090;28;19911;-86
2021/04/04 05:00:49;;;;;;;;;;;6.90;74.30;;;;;;5055443;28;19904;-86
2021/04/04 05:03:14;;;;;;;;;;;6.80;74.40;;;;;;5056035;28;20381;-85
2021/04/04 05:05:40;;;;;;;;;;;6.80;74.50;;;;;;5055990;28;20030;-86
2021/04/04 05:08:06;;;;;;;;;;;6.90;74.60;;;;;;5055964;28;19905;-86
2021/04/04 05:10:32;;;;;;;;;;;6.80;74.50;;;;;;5072534;28;19954;-85
2021/04/04 05:12:59;;;;;;;;;;;6.80;75.00;;;;;;5055596;28;19909;-86
2021/04/04 05:15:25;;;;;;;;;;;6.80;74.90;;;;;;5055600;28;19908;-86
2021/04/04 05:17:51;;;;;;;;;;;6.80;75.00;;;;;;5073779;28;19974;-86
2021/04/04 05:20:18;;;;;;;;;;;6.80;75.30;;;;;;5055225;28;19954;-86
2021/04/04 05:22:44;;;;;;;;;;;6.80;74.80;;;;;;5055650;28;19905;-86
2021/04/04 05:25:10;;;;;;;;;;;6.80;75.00;;;;;;5055537;28;19905;-85
2021/04/04 05:27:35;;;;;;;;;;;6.80;75.20;;;;;;5055641;28;19905;-85
2021/04/04 05:30:04;;;;;;;;;;;6.70;75.30;;;;;;5055058;28;19999;-85
2021/04/04 05:32:29;;;;;;;;;;;6.60;76.10;;;;;;5055353;28;20361;-85
2021/04/04 05:34:55;;;;;;;;;;;6.60;76.10;;;;;;5055462;28;19915;-86
2021/04/04 05:37:21;;;;;;;;;;;6.70;75.80;;;;;;5073319;28;19916;-86
2021/04/04 05:39:46;;;;;;;;;;;6.80;75.70;;;;;;5054783;28;19911;-86
2021/04/04 05:42:12;;;;;;;;;;;6.80;75.60;;;;;;5055239;28;20289;-86
2021/04/04 05:44:43;;;;;;;;;;;6.90;75.50;;;;;;5055111;28;19904;-85
2021/04/04 05:47:22;;;;;;;;;;;6.80;75.20;;;;;;5055356;28;19904;-86
2021/04/04 05:49:48;;;;;;;;;;;6.80;75.70;;;;;;5054578;28;19927;-86
2021/04/04 05:52:13;;;;;;;;;;;6.80;75.90;;;;;;5072908;28;20369;-85
2021/04/04 05:54:46;;;;;;;;;;;6.80;75.80;;;;;;5055108;28;20278;-85
2021/04/04 05:57:12;;;;;;;;;;;6.80;76.10;;;;;;5055004;28;19999;-86
2021/04/04 05:59:44;;;;;;;;;;;6.70;76.20;;;;;;5072319;28;19911;-86
2021/04/04 06:02:22;;;;;;;;;;;6.80;76.30;;;;;;5072825;28;19909;-86
2021/04/04 06:04:55;;;;;;;;;;;6.70;76.60;;;;;;5072793;28;19904;-85
2021/04/04 06:07:39;;;;;;;;;;;6.80;76.60;;;;;;5054866;28;20574;-85
2021/04/04 06:10:06;;;;;;;;;;;6.70;76.70;;;;;;5054219;28;19919;-85
2021/04/04 06:12:32;;;;;;;;;;;6.70;76.60;;;;;;5054815;28;19904;-86
2021/04/04 06:15:19;;;;;;;;;;;6.80;76.60;;;;;;5054684;28;20360;-85
2021/04/04 06:17:55;;;;;;;;;;;6.80;76.50;;;;;;5054855;28;19904;-85
2021/04/04 06:20:41;;;;;;;;;;;6.70;77.00;;;;;;5054104;28;19908;-85
2021/04/04 06:23:42;;;;;;;;;;;6.80;77.10;;;;;;5055061;28;20312;-86
2021/04/04 06:39:11;;;;;;;;;;;6.60;78.30;;;;;;4876728;29;19915;-86
2021/04/04 06:51:28;;;;;;;;;;;6.70;78.20;;;;;;4876245;29;20040;-86
2021/04/04 06:54:17;;;;;;;;;;;6.80;78.20;;;;;;4867043;29;19911;-86
2021/04/04 06:56:52;;;;;;;;;;;6.60;78.30;;;;;;4966401;28;20431;-85
2021/04/04 07:05:29;;;;;;;;;;;6.70;78.40;;;;;;5076240;28;19911;-85
2021/04/04 07:08:13;;;;;;;;;;;6.60;78.40;;;;;;5076484;28;19904;-85
2021/04/04 07:10:51;;;;;;;;;;;6.40;79.40;;;;;;5057161;28;19905;-85
2021/04/04 07:13:31;;;;;;;;;;;6.50;79.40;;;;;;5074572;28;20065;-85
2021/04/04 07:16:16;;;;;;;;;;;6.50;79.30;;;;;;5056063;28;19911;-86
2021/04/04 07:18:57;;;;;;;;;;;6.70;79.00;;;;;;5055793;28;19915;-85
2021/04/04 07:24:56;;;;;;;;;;;6.70;78.90;;;;;;4992018;28;19968;-85
2021/04/04 07:27:42;;;;;;;;;;;6.80;78.70;;;;;;4975526;28;19909;-85
2021/04/04 07:30:30;;;;;;;;;;;6.70;79.00;;;;;;4975484;28;19909;-85
2021/04/04 07:33:01;;;;;;;;;;;6.70;79.30;;;;;;4975614;28;19905;-85
2021/04/04 07:41:52;;;;;;;;;;;6.60;79.20;;;;;;4995347;28;19913;-86
2021/04/04 07:44:27;;;;;;;;;;;6.70;79.10;;;;;;5076955;28;20002;-87
2021/04/04 07:47:31;;;;;;;;;;;6.70;79.70;;;;;;5077381;28;19904;-86
2021/04/04 07:49:59;;;;;;;;;;;6.70;79.80;;;;;;4994521;28;20406;-87
2021/04/04 07:52:26;;;;;;;;;;;6.70;79.90;;;;;;4978770;28;19956;-86
2021/04/04 07:54:52;;;;;;;;;;;6.70;80.00;;;;;;5018017;28;20013;-86
2021/04/04 07:57:21;;;;;;;;;;;6.70;80.20;;;;;;5058467;28;19909;-86
2021/04/04 07:59:48;;;;;;;;;;;6.70;79.60;;;;;;5057779;28;19904;-86
2021/04/04 08:02:19;;;;;;;;;;;6.70;79.90;;;;;;5058174;28;19911;-86
2021/04/04 08:04:50;;;;;;;;;;;6.60;79.40;;;;;;5057945;28;20502;-87
2021/04/04 08:07:18;;;;;;;;;;;6.60;79.50;;;;;;5076013;28;19987;-86
2021/04/04 08:09:47;;;;;;;;;;;6.60;79.90;;;;;;5057197;28;19904;-86
2021/04/04 08:12:19;;;;;;;;;;;6.40;80.50;;;;;;5076272;28;19948;-86
2021/04/04 08:14:44;;;;;;;;;;;6.50;80.80;;;;;;5076163;28;19909;-86
2021/04/04 08:17:10;;;;;;;;;;;6.50;81.10;;;;;;5058517;28;20327;-86
2021/04/04 08:19:36;;;;;;;;;;;6.50;81.60;;;;;;5057813;28;19999;-86
2021/04/04 08:22:04;;;;;;;;;;;6.50;81.70;;;;;;5075848;28;20018;-86
2021/04/04 08:24:37;;;;;;;;;;;6.50;81.90;;;;;;5075076;28;19904;-86
2021/04/04 08:27:10;;;;;;;;;;;6.60;82.30;;;;;;5057426;28;19904;-86
2021/04/04 08:29:40;;;;;;;;;;;6.60;82.50;;;;;;5057337;28;19905;-86
2021/04/04 08:32:09;;;;;;;;;;;6.50;82.90;;;;;;5059095;28;19904;-87
2021/04/04 08:34:37;;;;;;;;;;;6.50;83.70;;;;;;5077098;28;19915;-86
2021/04/04 08:37:06;;;;;;;;;;;6.50;83.50;;;;;;5057640;28;19939;-86
2021/04/04 08:39:33;;;;;;;;;;;6.50;83.40;;;;;;5056996;28;19947;-87
2021/04/04 08:42:00;;;;;;;;;;;6.50;83.60;;;;;;5057186;28;19905;-86
2021/04/04 08:44:31;;;;;;;;;;;6.50;83.60;;;;;;5057584;28;19999;-86
2021/04/04 08:47:23;;;;;;;;;;;6.50;83.60;;;;;;5056451;28;19991;-86
2021/04/04 08:49:49;;;;;;;;;;;6.60;83.30;;;;;;5074652;28;19905;-86
2021/04/04 08:52:18;;;;;;;;;;;6.60;82.90;;;;;;5060221;28;19953;-86
2021/04/04 08:54:48;;;;;;;;;;;6.50;83.10;;;;;;5077095;28;20384;-86
2021/04/04 08:57:14;;;;;;;;;;;6.60;83.10;;;;;;5059918;28;20279;-86
2021/04/04 08:59:42;;;;;;;;;;;6.60;82.60;;;;;;5077128;28;19904;-86
2021/04/04 09:02:07;;;;;;;;;;;6.50;83.00;;;;;;5059356;28;19924;-87
2021/04/04 09:38:28;;;;;;;;;;;6.70;83.60;;;;;;4993202;28;19912;-87
2021/04/04 09:53:59;;;;;;;;;;;6.80;83.00;;;;;;5064606;28;20276;-86
2021/04/04 10:00:18;;;;;;;;;;;6.80;82.70;;;;;;4933337;29;19954;-86
2021/04/04 10:48:50;;;;;;;;;;;7.00;80.70;;;;;;5031595;28;19939;-87
2021/04/04 10:51:18;;;;;;;;;;;7.10;80.90;;;;;;5015291;28;20015;-86
2021/04/04 10:53:44;;;;;;;;;;;7.10;80.90;;;;;;5032604;28;19916;-86
2021/04/04 10:56:11;;;;;;;;;;;6.90;81.20;;;;;;5071883;28;19904;-86
2021/04/04 10:58:37;;;;;;;;;;;6.90;81.70;;;;;;5056512;28;20390;-86
2021/04/04 11:01:04;;;;;;;;;;;6.90;81.80;;;;;;5056116;28;19920;-86
2021/04/04 11:03:30;;;;;;;;;;;6.90;81.80;;;;;;5056180;28;19904;-86
2021/04/04 11:05:57;;;;;;;;;;;7.00;82.00;;;;;;5075113;28;20250;-86
2021/04/04 11:11:30;;;;;;;;;;;7.00;81.60;;;;;;4996246;28;20000;-86
2021/04/04 11:23:34;;;;;;;;;;;7.20;80.90;;;;;;4956996;28;19954;-86
2021/04/04 11:54:14;;;;;;;;;;;7.30;79.10;;;;;;4918887;29;20046;-87
2021/04/04 12:27:50;;;;;;;;;;;7.80;75.60;;;;;;5076218;28;20031;-86
2021/04/04 12:39:45;;;;;;;;;;;7.70;75.60;;;;;;4994340;28;19913;-87
2021/04/04 12:42:11;;;;;;;;;;;7.80;76.40;;;;;;5034146;28;19904;-86
2021/04/04 12:44:38;;;;;;;;;;;7.80;75.60;;;;;;5076293;28;19908;-87
2021/04/04 12:47:04;;;;;;;;;;;7.90;76.50;;;;;;5077010;28;19919;-86
2021/04/04 12:49:30;;;;;;;;;;;7.90;75.10;;;;;;5057715;28;19904;-88
2021/04/04 12:51:55;;;;;;;;;;;7.90;74.90;;;;;;5057734;28;19912;-86
2021/04/04 12:54:24;;;;;;;;;;;8.00;74.80;;;;;;5056824;28;19912;-86
2021/04/04 12:56:51;;;;;;;;;;;7.90;74.70;;;;;;5058728;28;19904;-87
2021/04/04 12:59:16;;;;;;;;;;;7.90;74.80;;;;;;5058106;28;19919;-87
2021/04/04 13:01:43;;;;;;;;;;;7.90;75.20;;;;;;5059211;28;19908;-87
2021/04/04 13:04:15;;;;;;;;;;;8.00;75.00;;;;;;5058828;28;19909;-87
2021/04/04 13:06:41;;;;;;;;;;;8.00;74.70;;;;;;5058054;28;19915;-87
2021/04/04 13:09:07;;;;;;;;;;;8.10;74.50;;;;;;5075881;28;19904;-86
2021/04/04 13:11:32;;;;;;;;;;;8.20;74.70;;;;;;5075557;28;19904;-87
2021/04/04 13:13:58;;;;;;;;;;;8.20;74.70;;;;;;5057797;28;19931;-86
2021/04/04 13:16:25;;;;;;;;;;;8.30;74.50;;;;;;5056674;28;19905;-86
2021/04/04 13:18:53;;;;;;;;;;;8.30;74.00;;;;;;5073999;28;19984;-87
2021/04/04 13:21:20;;;;;;;;;;;8.30;74.40;;;;;;5056415;28;19908;-86
2021/04/04 13:23:46;;;;;;;;;;;8.30;74.70;;;;;;5056986;28;19904;-87
2021/04/04 13:26:13;;;;;;;;;;;8.30;74.70;;;;;;5057223;28;20344;-87
2021/04/04 13:28:39;;;;;;;;;;;8.40;74.80;;;;;;5075019;28;19908;-87
2021/04/04 13:31:09;;;;;;;;;;;8.40;74.70;;;;;;5056245;28;20386;-87
2021/04/04 13:33:34;;;;;;;;;;;8.40;74.80;;;;;;5056688;28;20388;-87
2021/04/04 13:36:08;;;;;;;;;;;8.30;73.90;;;;;;5068803;23;19920;-85
2021/04/04 13:38:34;;;;;;;;;;;8.30;73.70;;;;;;5055047;28;19916;-84
2021/04/04 13:40:59;;;;;;;;;;;8.30;74.40;;;;;;5037633;28;19905;-85
2021/04/04 13:43:25;;;;;;;;;;;8.30;74.50;;;;;;5054162;28;20268;-85
2021/04/04 13:45:50;;;;;;;;;;;8.20;74.30;;;;;;5055477;28;20524;-85
2021/04/04 13:48:28;;;;;;;;;;;8.10;74.90;;;;;;5037085;28;19904;-85
2021/04/04 13:50:53;;;;;;;;;;;8.20;75.40;;;;;;5036608;28;19904;-85
2021/04/04 13:53:20;;;;;;;;;;;8.20;75.10;;;;;;5036614;28;20027;-85
2021/04/04 13:55:47;;;;;;;;;;;8.40;75.20;;;;;;5036982;28;20331;-85
2021/04/04 13:58:31;;;;;;;;;;;8.40;75.50;;;;;;5055318;28;20273;-85
2021/04/04 14:00:56;;;;;;;;;;;8.40;75.30;;;;;;5036681;28;19912;-85
2021/04/04 14:03:26;;;;;;;;;;;8.30;75.30;;;;;;5054229;28;20332;-85
2021/04/04 14:06:02;;;;;;;;;;;8.40;75.80;;;;;;5035980;28;20336;-84
2021/04/04 14:08:28;;;;;;;;;;;8.30;75.40;;;;;;5036245;28;19911;-84
2021/04/04 14:10:54;;;;;;;;;;;8.30;75.70;;;;;;5035329;28;19905;-85
2021/04/04 14:13:20;;;;;;;;;;;8.40;75.10;;;;;;5053725;28;20007;-85
2021/04/04 14:15:45;;;;;;;;;;;8.40;74.60;;;;;;5035844;28;20356;-84
2021/04/04 14:18:11;;;;;;;;;;;8.30;74.50;;;;;;5053949;28;19999;-84
2021/04/04 14:20:36;;;;;;;;;;;8.30;74.80;;;;;;5035102;28;20001;-85
2021/04/04 14:23:02;;;;;;;;;;;8.30;74.80;;;;;;5036739;28;19905;-85
2021/04/04 14:25:28;;;;;;;;;;;8.40;75.50;;;;;;5054175;28;19971;-85
2021/04/04 14:27:54;;;;;;;;;;;8.40;74.60;;;;;;5053586;28;19912;-85
2021/04/04 14:30:19;;;;;;;;;;;8.40;74.90;;;;;;5052996;28;20281;-85
2021/04/04 14:32:45;;;;;;;;;;;8.50;74.60;;;;;;5035114;28;19931;-85
2021/04/04 14:35:11;;;;;;;;;;;8.40;74.60;;;;;;5035255;28;20383;-85
2021/04/04 14:37:36;;;;;;;;;;;8.40;74.20;;;;;;5035552;28;19999;-84
2021/04/04 14:40:02;;;;;;;;;;;8.30;74.40;;;;;;5034875;28;19999;-85
2021/04/04 14:42:28;;;;;;;;;;;8.30;75.10;;;;;;5035377;28;19904;-85
2021/04/04 14:44:53;;;;;;;;;;;8.30;75.40;;;;;;5052608;28;19959;-84
2021/04/04 14:47:19;;;;;;;;;;;8.20;75.40;;;;;;5035577;28;19927;-85
2021/04/04 14:49:44;;;;;;;;;;;8.40;75.40;;;;;;5035681;28;19905;-85
2021/04/04 14:52:10;;;;;;;;;;;8.40;74.90;;;;;;5035981;28;19905;-85
2021/04/04 14:54:35;;;;;;;;;;;8.40;74.50;;;;;;5052642;28;20009;-85
2021/04/04 14:57:01;;;;;;;;;;;8.50;74.40;;;;;;5036086;28;20361;-85
2021/04/04 14:59:26;;;;;;;;;;;8.60;74.50;;;;;;5053035;28;19908;-85
2021/04/04 15:01:52;;;;;;;;;;;8.60;74.50;;;;;;5053582;28;19905;-85
2021/04/04 15:04:17;;;;;;;;;;;8.60;74.00;;;;;;5035745;28;19912;-85
2021/04/04 15:06:43;;;;;;;;;;;8.60;73.80;;;;;;5036224;28;20003;-85
2021/04/04 15:09:11;;;;;;;;;;;8.50;73.80;;;;;;5035013;28;19927;-85
2021/04/04 15:11:38;;;;;;;;;;;8.60;73.70;;;;;;5036196;28;19916;-85
2021/04/04 15:14:04;;;;;;;;;;;8.50;73.90;;;;;;5053913;28;19908;-85
2021/04/04 15:16:29;;;;;;;;;;;8.60;74.10;;;;;;5035471;28;20000;-84
2021/04/04 15:18:55;;;;;;;;;;;8.60;74.20;;;;;;5035011;28;19979;-85
2021/04/04 15:21:21;;;;;;;;;;;8.60;73.70;;;;;;5053434;28;20284;-85
2021/04/04 15:23:47;;;;;;;;;;;8.70;73.60;;;;;;5035553;28;20035;-85
2021/04/04 15:26:13;;;;;;;;;;;8.60;73.10;;;;;;5053626;28;20349;-85
2021/04/04 15:28:39;;;;;;;;;;;8.70;73.30;;;;;;5053434;28;19944;-85
2021/04/04 15:31:04;;;;;;;;;;;8.60;73.50;;;;;;5036145;28;20003;-85
2021/04/04 15:33:30;;;;;;;;;;;8.60;73.50;;;;;;5035808;28;19915;-85
2021/04/04 15:35:55;;;;;;;;;;;8.70;73.80;;;;;;5053542;28;19912;-84
2021/04/04 15:38:23;;;;;;;;;;;8.70;73.40;;;;;;5054173;28;19996;-85
2021/04/04 15:40:49;;;;;;;;;;;8.80;73.00;;;;;;5053235;28;20407;-85
2021/04/04 15:43:14;;;;;;;;;;;8.80;73.10;;;;;;5036093;28;19909;-85
2021/04/04 15:45:40;;;;;;;;;;;8.80;72.30;;;;;;5036840;28;19904;-85
2021/04/04 15:48:08;;;;;;;;;;;8.90;72.60;;;;;;5054175;28;19905;-85
2021/04/04 15:50:34;;;;;;;;;;;8.90;72.40;;;;;;5035116;28;20387;-85
2021/04/04 15:53:00;;;;;;;;;;;8.90;72.30;;;;;;5035434;28;20018;-83
2021/04/04 15:55:26;;;;;;;;;;;9.00;72.10;;;;;;5037210;28;19908;-84
2021/04/04 15:57:52;;;;;;;;;;;9.00;72.00;;;;;;5038884;28;19985;-85
2021/04/04 16:00:19;;;;;;;;;;;9.00;71.90;;;;;;5038128;28;20629;-85
2021/04/04 16:02:45;;;;;;;;;;;9.10;72.00;;;;;;5038729;28;19904;-85
2021/04/04 16:05:11;;;;;;;;;;;9.20;71.90;;;;;;5038592;28;19911;-85
2021/04/04 16:07:37;;;;;;;;;;;9.20;71.80;;;;;;5056138;28;20284;-85
2021/04/04 16:10:09;;;;;;;;;;;9.10;71.70;;;;;;5038601;28;19912;-85
2021/04/04 16:12:34;;;;;;;;;;;9.10;72.00;;;;;;5056800;28;19955;-85
2021/04/04 16:15:00;;;;;;;;;;;9.00;72.40;;;;;;5057318;28;20318;-85
2021/04/04 16:17:26;;;;;;;;;;;9.10;72.00;;;;;;5041563;28;20354;-85
2021/04/04 16:19:52;;;;;;;;;;;9.10;72.10;;;;;;5040150;28;19948;-85
2021/04/04 16:22:17;;;;;;;;;;;9.30;72.00;;;;;;5041087;28;19904;-85
2021/04/04 16:24:43;;;;;;;;;;;9.20;72.00;;;;;;5041013;28;19905;-85
2021/04/04 16:27:08;;;;;;;;;;;9.10;71.80;;;;;;5040724;28;19958;-84
2021/04/04 16:29:34;;;;;;;;;;;9.10;72.10;;;;;;5040485;28;19911;-85
2021/04/04 16:32:00;;;;;;;;;;;9.30;72.10;;;;;;5059625;28;19905;-85
2021/04/04 16:34:26;;;;;;;;;;;9.40;71.70;;;;;;5058601;28;19962;-85
2021/04/04 16:36:51;;;;;;;;;;;9.40;71.50;;;;;;5040247;28;19912;-85
2021/04/04 16:39:17;;;;;;;;;;;9.30;71.60;;;;;;5040135;28;19909;-85
2021/04/04 16:41:42;;;;;;;;;;;9.30;71.80;;;;;;5040061;28;19952;-85
2021/04/04 16:44:08;;;;;;;;;;;9.30;71.40;;;;;;5040974;28;20276;-85
2021/04/04 16:46:33;;;;;;;;;;;9.30;71.80;;;;;;5040275;28;19904;-85
2021/04/04 16:48:59;;;;;;;;;;;9.20;71.50;;;;;;5040003;28;19913;-85
2021/04/04 16:51:24;;;;;;;;;;;9.40;72.10;;;;;;5040065;28;19909;-85
2021/04/04 16:53:50;;;;;;;;;;;9.40;71.60;;;;;;5040450;28;19909;-85
2021/04/04 16:56:15;;;;;;;;;;;9.40;71.50;;;;;;5040192;28;19912;-85
2021/04/04 16:58:41;;;;;;;;;;;9.40;71.40;;;;;;5059122;28;20361;-85
2021/04/04 17:01:06;;;;;;;;;;;9.30;71.90;;;;;;5039893;28;19955;-84
2021/04/04 17:03:32;;;;;;;;;;;9.20;72.70;;;;;;5039611;28;19905;-85
2021/04/04 17:05:59;;;;;;;;;;;9.20;72.10;;;;;;5039079;28;19958;-85
2021/04/04 17:08:26;;;;;;;;;;;9.20;72.20;;;;;;5038820;28;19954;-86
2021/04/04 17:11:01;;;;;;;;;;;9.10;72.30;;;;;;5039325;28;19912;-85
2021/04/04 17:13:27;;;;;;;;;;;9.00;72.80;;;;;;5038667;28;19913;-85
2021/04/04 17:15:54;;;;;;;;;;;9.00;73.10;;;;;;5057120;28;19968;-85
2021/04/04 17:18:19;;;;;;;;;;;9.00;73.30;;;;;;5057002;28;19905;-84
2021/04/04 17:20:45;;;;;;;;;;;8.90;73.10;;;;;;5039323;28;19926;-85
2021/04/04 17:23:12;;;;;;;;;;;8.90;73.30;;;;;;5056981;28;20379;-84
2021/04/04 17:25:42;;;;;;;;;;;8.90;73.00;;;;;;5046320;28;19904;-85
2021/04/04 17:28:08;;;;;;;;;;;8.90;72.90;;;;;;5056320;28;19905;-85
2021/04/04 17:30:33;;;;;;;;;;;8.90;73.10;;;;;;5038503;28;19908;-85
2021/04/04 17:32:59;;;;;;;;;;;8.90;73.30;;;;;;5038749;28;20356;-85
2021/04/04 17:35:26;;;;;;;;;;;9.00;73.50;;;;;;5053792;28;19912;-85
2021/04/04 17:37:51;;;;;;;;;;;8.90;73.40;;;;;;5039197;28;19905;-85
2021/04/04 17:40:17;;;;;;;;;;;8.90;73.60;;;;;;5039344;28;19911;-85
2021/04/04 17:42:43;;;;;;;;;;;8.90;74.10;;;;;;5057811;28;19905;-84
2021/04/04 17:45:10;;;;;;;;;;;8.90;74.10;;;;;;5055673;28;19905;-85
2021/04/04 17:47:35;;;;;;;;;;;8.80;74.40;;;;;;5038882;28;19911;-85
2021/04/04 17:50:01;;;;;;;;;;;8.70;74.50;;;;;;5055805;28;19960;-85
2021/04/04 17:52:26;;;;;;;;;;;8.70;74.80;;;;;;5057097;28;19909;-84
2021/04/04 17:54:52;;;;;;;;;;;8.70;75.00;;;;;;5039546;28;19908;-85
2021/04/04 17:57:17;;;;;;;;;;;8.70;75.10;;;;;;5057179;28;19905;-85
2021/04/04 17:59:43;;;;;;;;;;;8.70;74.90;;;;;;5039371;28;19905;-85
2021/04/04 18:02:09;;;;;;;;;;;8.70;74.90;;;;;;5038430;28;19912;-85
2021/04/04 18:04:35;;;;;;;;;;;8.70;75.30;;;;;;5055512;28;19905;-85
2021/04/04 18:12:10;;;;;;;;;;;8.70;75.50;;;;;;5055541;28;19995;-85
2021/04/04 18:14:36;;;;;;;;;;;8.60;75.60;;;;;;5055649;28;19935;-85
2021/04/04 18:17:02;;;;;;;;;;;8.60;75.90;;;;;;5056065;28;19905;-85